Time;durP1;ratioP1;P1;durP2;ratioP2;P2;SDS_P1;SDS_P2;PMS_P1;PMS_P2;Temp;Humidity;BMP_temperature;BMP_pressure;BME280_temperature;BME280_humidity;BME280_pressure;Samples;Min_cycle;Max_cycle;Signal;HPM_P1;HPM_P2
2021/10/14 00:01:00;;;;;;;36.30;26.85;;;11.60;99.90;;;;;;5103693;28;20116;-46
2021/10/14 00:03:26;;;;;;;36.55;25.13;;;11.60;99.90;;;;;;5103710;28;20051;-46
2021/10/14 00:05:52;;;;;;;35.88;25.73;;;11.70;99.90;;;;;;5085850;28;20084;-45
2021/10/14 00:08:18;;;;;;;36.70;25.52;;;11.70;99.90;;;;;;5104682;28;20146;-46
2021/10/14 00:10:44;;;;;;;32.03;24.92;;;11.70;99.90;;;;;;5102812;28;20045;-45
2021/10/14 00:13:10;;;;;;;31.67;25.00;;;11.70;99.90;;;;;;5106723;28;20051;-46
2021/10/14 00:15:36;;;;;;;34.05;24.25;;;11.70;99.90;;;;;;5108198;28;20085;-45
2021/10/14 00:18:02;;;;;;;32.40;24.75;;;11.70;99.90;;;;;;5107077;28;20085;-47
2021/10/14 00:20:29;;;;;;;33.35;24.75;;;11.70;99.90;;;;;;5065569;28;20924;-46
2021/10/14 00:22:55;;;;;;;34.20;25.25;;;11.70;99.90;;;;;;5106600;28;20142;-46
2021/10/14 00:25:22;;;;;;;36.40;25.45;;;11.70;99.90;;;;;;5108799;28;20098;-46
2021/10/14 00:27:52;;;;;;;34.83;25.08;;;11.70;99.90;;;;;;5107094;28;20671;-45
2021/10/14 00:30:19;;;;;;;31.30;23.45;;;11.70;99.90;;;;;;5106685;28;20766;-48
2021/10/14 00:32:48;;;;;;;34.05;22.58;;;11.80;99.90;;;;;;5106518;28;20093;-45
2021/10/14 00:35:14;;;;;;;31.98;23.25;;;11.70;99.90;;;;;;5107395;28;20116;-45
2021/10/14 00:37:40;;;;;;;30.02;23.63;;;11.80;99.90;;;;;;5107559;28;20547;-45
2021/10/14 00:40:08;;;;;;;37.58;25.67;;;11.80;99.90;;;;;;5106305;28;20040;-45
2021/10/14 00:42:46;;;;;;;33.35;24.55;;;11.80;99.90;;;;;;5105903;28;20112;-46
2021/10/14 00:45:13;;;;;;;43.00;26.77;;;11.80;99.90;;;;;;5107082;28;20044;-45
2021/10/14 00:47:40;;;;;;;50.28;28.77;;;11.80;99.90;;;;;;5106843;28;20508;-45
2021/10/14 00:50:08;;;;;;;48.30;26.50;;;11.80;99.90;;;;;;5105185;28;20065;-45
2021/10/14 00:52:36;;;;;;;44.17;26.58;;;11.80;99.90;;;;;;5106673;28;20054;-47
2021/10/14 00:55:03;;;;;;;70.25;27.60;;;11.80;99.90;;;;;;5106627;28;20087;-45
2021/10/14 00:57:29;;;;;;;60.83;28.67;;;11.80;99.90;;;;;;5107212;28;20503;-45
2021/10/14 00:59:55;;;;;;;44.00;27.10;;;11.80;99.90;;;;;;5104875;28;20664;-46
2021/10/14 01:02:22;;;;;;;59.92;27.88;;;11.80;99.90;;;;;;5105729;28;20051;-46
2021/10/14 01:04:54;;;;;;;61.83;28.65;;;11.80;99.90;;;;;;5104767;28;20055;-45
2021/10/14 01:07:20;;;;;;;52.08;26.48;;;11.80;99.90;;;;;;5072238;28;20052;-45
2021/10/14 01:09:46;;;;;;;57.03;28.35;;;11.80;99.90;;;;;;5107082;28;20062;-45
2021/10/14 01:12:14;;;;;;;40.55;24.83;;;11.80;99.90;;;;;;5104936;28;20051;-45
2021/10/14 01:14:43;;;;;;;49.00;26.35;;;11.80;99.90;;;;;;5104405;28;20047;-46
2021/10/14 01:17:09;;;;;;;51.47;25.50;;;11.80;99.90;;;;;;5087223;28;20167;-45
2021/10/14 01:19:39;;;;;;;46.95;25.33;;;11.80;99.90;;;;;;5089043;28;20050;-47
2021/10/14 01:22:05;;;;;;;56.80;27.05;;;11.80;99.90;;;;;;5105115;28;20521;-48
2021/10/14 01:24:31;;;;;;;46.13;25.20;;;11.90;99.90;;;;;;5103470;28;20062;-49
2021/10/14 01:27:08;;;;;;;47.88;26.08;;;11.90;99.90;;;;;;5101540;28;20886;-48
2021/10/14 01:29:35;;;;;;;55.08;26.85;;;11.90;99.90;;;;;;5105230;28;20051;-45
2021/10/14 01:32:03;;;;;;;59.78;28.17;;;11.90;99.90;;;;;;5104971;28;20079;-47
2021/10/14 01:34:30;;;;;;;66.18;28.90;;;11.90;99.90;;;;;;5105899;28;20122;-47
2021/10/14 01:36:56;;;;;;;53.58;27.88;;;11.90;99.90;;;;;;5106789;28;20511;-46
2021/10/14 01:39:22;;;;;;;52.90;28.65;;;12.00;99.90;;;;;;5106073;28;20044;-47
2021/10/14 01:41:51;;;;;;;55.00;29.58;;;11.90;99.90;;;;;;5103385;28;20101;-45
2021/10/14 01:44:17;;;;;;;53.53;29.23;;;11.90;99.90;;;;;;5087519;28;20107;-47
2021/10/14 01:46:43;;;;;;;64.18;30.60;;;12.00;99.90;;;;;;5107552;28;20060;-46
2021/10/14 01:49:09;;;;;;;55.95;30.88;;;12.00;99.90;;;;;;5105126;28;20419;-46
2021/10/14 01:51:35;;;;;;;49.40;27.92;;;12.00;99.90;;;;;;5101588;28;20136;-46
2021/10/14 01:54:01;;;;;;;50.47;28.88;;;12.00;99.90;;;;;;5086354;28;20100;-47
2021/10/14 01:59:11;;;;;;;47.67;28.58;;;12.00;99.90;;;;;;5104494;28;20449;-47
2021/10/14 02:01:37;;;;;;;44.58;28.45;;;12.00;99.90;;;;;;5103970;28;20062;-48
2021/10/14 02:04:03;;;;;;;44.83;27.13;;;12.00;99.90;;;;;;5105636;28;20125;-46
2021/10/14 02:06:31;;;;;;;43.38;27.33;;;12.00;99.90;;;;;;5103760;28;20423;-46
2021/10/14 02:08:57;;;;;;;46.47;28.45;;;12.00;99.90;;;;;;5101552;28;20059;-46
2021/10/14 02:11:23;;;;;;;42.53;27.38;;;12.10;99.90;;;;;;5104804;28;20120;-47
2021/10/14 02:14:07;;;;;;;40.35;26.17;;;12.10;99.90;;;;;;5102687;28;20105;-46
2021/10/14 02:16:33;;;;;;;43.45;25.88;;;12.10;99.90;;;;;;5107499;28;20089;-46
2021/10/14 02:18:59;;;;;;;39.08;25.13;;;12.10;99.90;;;;;;5105417;28;20063;-46
2021/10/14 02:21:25;;;;;;;39.92;23.40;;;12.10;99.90;;;;;;5104418;28;20774;-46
2021/10/14 02:23:51;;;;;;;38.65;24.33;;;12.10;99.90;;;;;;5089286;28;20080;-47
2021/10/14 02:26:17;;;;;;;36.85;23.92;;;12.10;99.90;;;;;;5108455;28;20112;-47
2021/10/14 02:28:43;;;;;;;37.10;23.35;;;12.20;99.90;;;;;;5104383;28;20142;-46
2021/10/14 02:31:09;;;;;;;39.30;23.95;;;12.20;99.90;;;;;;5085941;28;20051;-46
2021/10/14 02:33:36;;;;;;;38.10;23.40;;;12.20;99.90;;;;;;5084557;28;20056;-46
2021/10/14 02:36:02;;;;;;;38.22;22.15;;;12.20;99.90;;;;;;5101648;28;20044;-46
2021/10/14 02:38:28;;;;;;;35.90;22.58;;;12.20;99.90;;;;;;5104446;28;20043;-47
2021/10/14 02:40:54;;;;;;;33.17;20.05;;;12.30;99.90;;;;;;5086147;28;20064;-47
2021/10/14 02:43:20;;;;;;;30.63;20.17;;;12.30;99.90;;;;;;5085181;28;22721;-49
2021/10/14 02:45:46;;;;;;;29.80;19.05;;;12.30;99.90;;;;;;5103985;28;20063;-47
2021/10/14 02:48:12;;;;;;;30.63;18.73;;;12.30;99.90;;;;;;5101481;28;20490;-46
2021/10/14 02:50:38;;;;;;;30.05;17.63;;;12.30;99.90;;;;;;5103743;28;20055;-49
2021/10/14 02:53:04;;;;;;;28.30;16.88;;;12.40;99.90;;;;;;5086277;28;20044;-47
2021/10/14 02:55:30;;;;;;;32.83;17.15;;;12.30;99.90;;;;;;5102173;28;20079;-47
2021/10/14 02:57:56;;;;;;;28.05;15.18;;;12.30;99.90;;;;;;5104662;28;20086;-50
2021/10/14 03:00:23;;;;;;;24.02;13.98;;;12.30;99.90;;;;;;5100491;28;20087;-48
2021/10/14 03:02:50;;;;;;;22.90;13.23;;;12.30;99.90;;;;;;5103374;28;20407;-48
2021/10/14 03:05:17;;;;;;;20.95;12.13;;;12.30;99.90;;;;;;5104402;28;20043;-48
2021/10/14 03:07:43;;;;;;;22.02;12.00;;;12.30;99.90;;;;;;5103500;28;20761;-48
2021/10/14 03:10:09;;;;;;;21.48;11.98;;;12.30;99.90;;;;;;5104240;28;20095;-47
2021/10/14 03:12:35;;;;;;;17.15;11.60;;;12.30;99.90;;;;;;5085973;28;20058;-47
2021/10/14 03:15:03;;;;;;;21.40;12.07;;;12.30;99.90;;;;;;5103640;28;20499;-48
2021/10/14 03:17:29;;;;;;;21.73;11.20;;;12.30;99.90;;;;;;5099764;28;20133;-49
2021/10/14 03:19:55;;;;;;;18.42;10.80;;;12.30;99.90;;;;;;5087428;28;20058;-48
2021/10/14 03:22:24;;;;;;;18.55;12.25;;;12.30;99.90;;;;;;5103457;28;20109;-48
2021/10/14 03:24:50;;;;;;;22.15;12.98;;;12.30;99.90;;;;;;5102784;28;20059;-47
2021/10/14 03:27:16;;;;;;;22.98;12.23;;;12.30;99.90;;;;;;5099734;28;20488;-48
2021/10/14 03:29:42;;;;;;;23.73;12.98;;;12.30;99.90;;;;;;5085398;28;20051;-47
2021/10/14 03:32:08;;;;;;;23.23;12.70;;;12.30;99.90;;;;;;5102498;28;20571;-46
2021/10/14 03:34:34;;;;;;;20.48;12.90;;;12.30;99.90;;;;;;5102629;28;20079;-47
2021/10/14 03:37:00;;;;;;;25.83;13.25;;;12.30;99.90;;;;;;5104243;28;20126;-48
2021/10/14 03:39:26;;;;;;;22.65;13.85;;;12.30;99.90;;;;;;5082547;28;20044;-47
2021/10/14 03:41:52;;;;;;;31.15;15.65;;;12.40;99.90;;;;;;5110662;28;20401;-47
2021/10/14 03:44:18;;;;;;;24.52;15.15;;;12.40;99.90;;;;;;5107677;28;20086;-47
2021/10/14 03:46:46;;;;;;;30.17;17.38;;;12.30;99.90;;;;;;5107531;28;20052;-47
2021/10/14 03:49:12;;;;;;;28.65;19.75;;;12.30;99.90;;;;;;5108068;28;20062;-47
2021/10/14 03:51:38;;;;;;;36.70;22.33;;;12.30;99.90;;;;;;5079724;28;20497;-48
2021/10/14 03:54:04;;;;;;;39.78;23.45;;;12.30;99.90;;;;;;5108073;28;20124;-47
2021/10/14 03:56:30;;;;;;;34.63;23.17;;;12.30;99.90;;;;;;5110540;28;20047;-47
2021/10/14 03:58:58;;;;;;;44.65;25.83;;;12.40;99.90;;;;;;5109767;28;20126;-46
2021/10/14 04:01:24;;;;;;;44.00;26.58;;;12.30;99.90;;;;;;5094916;28;20917;-49
2021/10/14 04:03:50;;;;;;;44.72;26.95;;;12.40;99.90;;;;;;5111412;28;20162;-48
2021/10/14 04:06:16;;;;;;;57.78;30.73;;;12.40;99.90;;;;;;5111015;28;20173;-48
2021/10/14 04:08:42;;;;;;;59.63;32.10;;;12.40;99.90;;;;;;5111509;28;20051;-47
2021/10/14 04:11:08;;;;;;;54.47;32.60;;;12.40;99.90;;;;;;5110341;28;20040;-47
2021/10/14 04:13:34;;;;;;;54.63;32.88;;;12.40;99.90;;;;;;5110171;28;20044;-46
2021/10/14 04:16:00;;;;;;;69.82;37.13;;;12.40;99.90;;;;;;5089698;28;20132;-47
2021/10/14 04:18:26;;;;;;;68.53;38.85;;;12.50;99.90;;;;;;5105641;28;20089;-46
2021/10/14 04:20:52;;;;;;;76.28;38.05;;;12.40;99.90;;;;;;5103752;28;20092;-47
2021/10/14 04:23:20;;;;;;;66.72;37.10;;;12.40;99.90;;;;;;5087980;28;20106;-47
2021/10/14 04:25:46;;;;;;;72.57;39.15;;;12.40;99.90;;;;;;5107069;28;20850;-48
2021/10/14 04:28:12;;;;;;;73.13;39.03;;;12.40;99.90;;;;;;5105158;28;20051;-47
2021/10/14 04:30:39;;;;;;;64.90;37.83;;;12.40;99.90;;;;;;5107231;28;20118;-46
2021/10/14 04:33:05;;;;;;;86.63;41.92;;;12.40;99.90;;;;;;5103456;28;20035;-47
2021/10/14 04:35:32;;;;;;;68.55;38.83;;;12.40;99.90;;;;;;5106327;28;20062;-49
2021/10/14 04:37:58;;;;;;;77.68;41.28;;;12.40;99.90;;;;;;5104323;28;20051;-48
2021/10/14 04:40:24;;;;;;;79.97;40.95;;;12.40;99.90;;;;;;5105003;28;20431;-49
2021/10/14 04:42:50;;;;;;;81.00;40.53;;;12.40;99.90;;;;;;5105323;28;20051;-47
2021/10/14 04:45:16;;;;;;;86.07;44.13;;;12.50;99.90;;;;;;5090196;28;20090;-48
2021/10/14 04:47:42;;;;;;;88.50;43.35;;;12.40;99.90;;;;;;5103921;28;20040;-48
2021/10/14 04:50:08;;;;;;;89.55;43.35;;;12.40;99.90;;;;;;5105848;28;20043;-49
2021/10/14 04:52:34;;;;;;;80.22;41.60;;;12.50;99.90;;;;;;5106006;28;20051;-49
2021/10/14 04:55:00;;;;;;;86.47;40.58;;;12.50;99.90;;;;;;5106557;28;20061;-49
2021/10/14 04:57:27;;;;;;;92.80;41.97;;;12.50;99.90;;;;;;5105036;28;20058;-49
2021/10/14 04:59:52;;;;;;;88.18;42.40;;;12.50;99.90;;;;;;5100144;28;20117;-48
2021/10/14 05:02:19;;;;;;;83.68;41.67;;;12.40;99.90;;;;;;5103168;28;20052;-48
2021/10/14 05:04:45;;;;;;;94.80;43.55;;;12.50;99.90;;;;;;5105037;28;20047;-48
2021/10/14 05:07:11;;;;;;;88.22;40.95;;;12.50;99.90;;;;;;5108052;28;20533;-51
2021/10/14 05:09:37;;;;;;;77.82;40.20;;;12.50;99.90;;;;;;5109493;28;20048;-48
2021/10/14 05:12:03;;;;;;;78.03;38.97;;;12.50;99.90;;;;;;5106617;28;20048;-47
2021/10/14 05:14:29;;;;;;;75.22;38.90;;;12.50;99.90;;;;;;5107004;28;20052;-48
2021/10/14 05:16:56;;;;;;;75.53;38.13;;;12.50;99.90;;;;;;5105091;28;20056;-46
2021/10/14 05:19:22;;;;;;;67.82;36.70;;;12.50;99.90;;;;;;5104772;28;20126;-46
2021/10/14 05:21:49;;;;;;;69.10;37.35;;;12.50;99.90;;;;;;5101505;28;20051;-48
2021/10/14 05:24:15;;;;;;;61.28;36.05;;;12.50;99.90;;;;;;5105781;28;20055;-47
2021/10/14 05:26:44;;;;;;;55.78;32.42;;;12.50;99.90;;;;;;5085770;28;20043;-47
2021/10/14 05:29:10;;;;;;;61.72;33.80;;;12.50;99.90;;;;;;5105556;28;20047;-48
2021/10/14 05:31:36;;;;;;;54.53;31.45;;;12.50;99.90;;;;;;5087395;28;20134;-50
2021/10/14 05:34:02;;;;;;;48.60;29.27;;;12.50;99.90;;;;;;5103970;28;20047;-47
2021/10/14 05:36:28;;;;;;;52.78;30.80;;;12.50;99.90;;;;;;5107407;28;20040;-47
2021/10/14 05:38:54;;;;;;;52.97;29.45;;;12.60;99.90;;;;;;5105795;28;20054;-48
2021/10/14 05:41:22;;;;;;;47.53;28.77;;;12.60;99.90;;;;;;5106879;28;20357;-47
2021/10/14 05:43:48;;;;;;;46.40;28.05;;;12.60;99.90;;;;;;5108413;28;20059;-47
2021/10/14 05:46:14;;;;;;;48.17;28.48;;;12.60;99.90;;;;;;5106992;28;20043;-46
2021/10/14 05:48:40;;;;;;;47.00;28.27;;;12.60;99.90;;;;;;5108351;28;20507;-48
2021/10/14 05:51:06;;;;;;;48.30;29.02;;;12.60;99.90;;;;;;5107963;28;20047;-48
2021/10/14 05:53:32;;;;;;;44.53;29.17;;;12.60;99.90;;;;;;5107884;28;20144;-48
2021/10/14 05:55:58;;;;;;;55.15;29.77;;;12.60;99.90;;;;;;5089555;28;20058;-47
2021/10/14 05:58:25;;;;;;;47.13;28.27;;;12.60;99.90;;;;;;5108432;28;20135;-47
2021/10/14 06:00:51;;;;;;;40.38;27.17;;;12.60;99.90;;;;;;5108199;28;20089;-47
2021/10/14 06:03:17;;;;;;;42.55;27.05;;;12.60;99.90;;;;;;5108327;28;20078;-48
2021/10/14 06:05:43;;;;;;;44.03;26.25;;;12.60;99.90;;;;;;5108325;28;20510;-48
2021/10/14 06:08:09;;;;;;;40.58;26.35;;;12.60;99.90;;;;;;5108410;28;20051;-49
2021/10/14 06:10:36;;;;;;;40.42;25.08;;;12.60;99.90;;;;;;5105027;28;20060;-48
2021/10/14 06:13:02;;;;;;;45.05;25.92;;;12.60;99.90;;;;;;5102052;28;20043;-46
2021/10/14 06:15:29;;;;;;;38.80;24.90;;;12.60;99.90;;;;;;5108206;28;20112;-48
2021/10/14 06:17:55;;;;;;;42.13;26.40;;;12.70;99.90;;;;;;5103998;28;20094;-49
2021/10/14 06:20:21;;;;;;;36.53;26.15;;;12.70;99.90;;;;;;5107699;28;20078;-49
2021/10/14 06:22:47;;;;;;;36.28;24.85;;;12.70;99.90;;;;;;5106598;28;20056;-49
2021/10/14 06:25:13;;;;;;;39.40;25.00;;;12.70;99.90;;;;;;5108341;28;20131;-47
2021/10/14 06:27:39;;;;;;;40.63;25.60;;;12.70;99.90;;;;;;5106417;28;20047;-48
2021/10/14 06:30:06;;;;;;;37.60;24.63;;;12.70;99.90;;;;;;5087244;28;20109;-46
2021/10/14 06:32:32;;;;;;;35.35;23.45;;;12.70;99.90;;;;;;5106759;28;20048;-48
2021/10/14 06:34:58;;;;;;;36.53;24.33;;;12.80;99.90;;;;;;5106736;28;20123;-46
2021/10/14 06:37:24;;;;;;;39.00;24.77;;;12.80;99.90;;;;;;5107056;28;20051;-48
2021/10/14 06:39:50;;;;;;;34.33;23.20;;;12.80;99.90;;;;;;5105436;28;20056;-46
2021/10/14 06:42:18;;;;;;;32.25;24.35;;;12.80;99.90;;;;;;5106425;28;20067;-46
2021/10/14 06:44:44;;;;;;;37.78;24.70;;;12.80;99.90;;;;;;5104737;28;20783;-49
2021/10/14 06:47:11;;;;;;;35.97;23.85;;;12.80;99.90;;;;;;5105993;28;20060;-47
2021/10/14 06:49:43;;;;;;;30.75;23.48;;;12.80;99.90;;;;;;5107545;28;20044;-47
2021/10/14 06:52:09;;;;;;;31.95;23.90;;;12.90;99.90;;;;;;5106588;28;20582;-47
2021/10/14 06:54:38;;;;;;;36.40;22.92;;;12.90;99.90;;;;;;5105406;28;20519;-48
2021/10/14 06:57:05;;;;;;;29.27;22.38;;;12.90;99.90;;;;;;5105214;28;20155;-48
2021/10/14 06:59:31;;;;;;;30.35;22.95;;;12.90;99.90;;;;;;5105780;28;20052;-47
2021/10/14 07:01:57;;;;;;;26.95;19.48;;;12.90;99.90;;;;;;5104816;28;20448;-47
2021/10/14 07:04:23;;;;;;;29.40;19.67;;;12.90;99.90;;;;;;5086990;28;20058;-47
2021/10/14 07:06:52;;;;;;;26.73;17.85;;;12.90;99.90;;;;;;5105415;28;20057;-49
2021/10/14 07:09:18;;;;;;;31.10;20.25;;;12.90;99.90;;;;;;5104209;28;20055;-47
2021/10/14 07:11:52;;;;;;;24.20;17.70;;;12.90;99.90;;;;;;5105389;28;20051;-48
2021/10/14 07:14:19;;;;;;;25.02;18.75;;;12.90;99.90;;;;;;5105956;28;20043;-47
2021/10/14 07:16:45;;;;;;;23.63;16.83;;;12.90;99.90;;;;;;5105647;28;20054;-50
2021/10/14 07:19:14;;;;;;;27.42;17.98;;;12.90;99.90;;;;;;5106462;28;20047;-47
2021/10/14 07:21:40;;;;;;;22.73;16.95;;;12.90;99.90;;;;;;5105486;28;20138;-48
2021/10/14 07:24:06;;;;;;;24.25;15.90;;;12.90;99.90;;;;;;5106352;28;20070;-49
2021/10/14 07:26:32;;;;;;;20.42;14.43;;;12.90;99.90;;;;;;5106470;28;20087;-48
2021/10/14 07:29:00;;;;;;;21.15;15.20;;;12.90;99.90;;;;;;5106073;28;20181;-46
2021/10/14 07:31:26;;;;;;;18.13;13.90;;;12.90;99.90;;;;;;5104537;28;20381;-48
2021/10/14 07:33:52;;;;;;;17.85;12.40;;;13.00;99.90;;;;;;5106965;28;20147;-47
2021/10/14 07:36:20;;;;;;;15.40;11.65;;;13.00;99.90;;;;;;5107591;28;20044;-47
2021/10/14 07:38:46;;;;;;;16.33;11.25;;;13.00;99.90;;;;;;5102205;28;20051;-50
2021/10/14 07:41:15;;;;;;;15.88;10.50;;;13.00;99.90;;;;;;5106822;28;20492;-48
2021/10/14 07:43:45;;;;;;;14.95;9.40;;;13.00;99.90;;;;;;5107002;28;20043;-50
2021/10/14 07:46:16;;;;;;;14.35;10.00;;;13.00;99.90;;;;;;5105242;28;20055;-51
2021/10/14 07:48:45;;;;;;;14.47;8.40;;;13.00;99.90;;;;;;5106577;28;20100;-50
2021/10/14 07:51:21;;;;;;;11.48;9.02;;;13.00;99.90;;;;;;5106074;28;20480;-52
2021/10/14 07:53:55;;;;;;;16.70;9.10;;;13.00;99.90;;;;;;5105651;28;20047;-46
2021/10/14 07:56:21;;;;;;;16.05;8.23;;;13.10;99.90;;;;;;5102352;28;20088;-49
2021/10/14 07:58:51;;;;;;;11.55;8.48;;;13.10;99.90;;;;;;5104932;28;20122;-48
2021/10/14 08:01:17;;;;;;;11.25;7.63;;;13.10;99.90;;;;;;5102518;28;20795;-50
2021/10/14 08:03:43;;;;;;;13.43;8.30;;;13.10;99.90;;;;;;5106439;28;20130;-48
2021/10/14 08:06:09;;;;;;;10.02;6.93;;;13.10;99.90;;;;;;5104776;28;20097;-48
2021/10/14 08:08:36;;;;;;;12.45;7.38;;;13.10;99.90;;;;;;5104466;28;20094;-49
2021/10/14 08:11:07;;;;;;;14.20;7.85;;;13.00;99.90;;;;;;5106169;28;20054;-49
2021/10/14 08:13:34;;;;;;;13.07;7.30;;;13.10;99.90;;;;;;5104451;28;20082;-48
2021/10/14 08:16:00;;;;;;;13.23;8.07;;;13.10;99.90;;;;;;5106123;28;20063;-48
2021/10/14 08:18:31;;;;;;;13.23;7.90;;;13.10;99.90;;;;;;5104704;28;20051;-50
2021/10/14 08:20:58;;;;;;;14.25;8.43;;;13.10;99.90;;;;;;5105053;28;20048;-47
2021/10/14 08:23:26;;;;;;;10.98;7.30;;;13.10;99.90;;;;;;5109134;28;20054;-48
2021/10/14 08:25:53;;;;;;;11.52;7.00;;;13.10;99.90;;;;;;5110307;28;20051;-48
2021/10/14 08:28:26;;;;;;;14.27;6.93;;;13.10;99.90;;;;;;5110931;28;20056;-49
2021/10/14 08:30:53;;;;;;;11.02;7.63;;;13.10;99.90;;;;;;5111451;28;20062;-48
2021/10/14 08:33:20;;;;;;;11.95;7.40;;;13.10;99.90;;;;;;5104832;28;20047;-49
2021/10/14 08:36:04;;;;;;;12.47;6.80;;;13.10;99.90;;;;;;5108347;28;20044;-49
2021/10/14 08:38:30;;;;;;;10.13;7.97;;;13.20;99.90;;;;;;5108508;28;20053;-48
2021/10/14 08:40:56;;;;;;;12.65;7.90;;;13.30;99.90;;;;;;5108248;28;20055;-48
2021/10/14 08:43:24;;;;;;;9.55;6.70;;;13.30;99.90;;;;;;5109725;28;20118;-49
2021/10/14 08:45:50;;;;;;;10.75;6.55;;;13.40;99.90;;;;;;5087490;28;20056;-48
2021/10/14 08:48:16;;;;;;;9.90;6.47;;;13.50;99.90;;;;;;5108452;28;20074;-47
2021/10/14 08:50:45;;;;;;;11.52;6.78;;;13.50;99.90;;;;;;5108395;28;20051;-47
2021/10/14 08:53:22;;;;;;;10.75;7.38;;;13.50;99.90;;;;;;5108993;28;20127;-51
2021/10/14 08:55:48;;;;;;;11.80;6.55;;;13.60;99.90;;;;;;5109150;28;20043;-47
2021/10/14 08:58:14;;;;;;;11.43;7.13;;;13.70;99.90;;;;;;5106992;28;20119;-49
2021/10/14 09:01:01;;;;;;;9.85;6.72;;;13.80;99.90;;;;;;5108025;28;20520;-48
2021/10/14 09:03:29;;;;;;;9.80;6.68;;;13.80;99.90;;;;;;5104307;28;20730;-49
2021/10/14 09:05:56;;;;;;;10.48;6.45;;;13.80;99.90;;;;;;5106963;28;20477;-48
2021/10/14 09:08:42;;;;;;;10.77;5.82;;;13.80;99.90;;;;;;5107658;28;20188;-48
2021/10/14 18:40:44;;;;;;;8.45;6.15;;;13.60;99.90;;;;;;4892983;29;20056;-53
2021/10/14 18:43:18;;;;;;;9.13;5.63;;;13.70;99.90;;;;;;4909906;29;20059;-54
2021/10/14 18:45:53;;;;;;;7.75;6.35;;;13.70;99.90;;;;;;4906518;29;20628;-55
2021/10/14 18:48:22;;;;;;;9.70;6.40;;;13.70;99.90;;;;;;4894015;29;20092;-52
2021/10/14 18:50:59;;;;;;;8.52;6.78;;;13.70;99.90;;;;;;4910139;29;20058;-56
2021/10/14 18:53:25;;;;;;;10.00;5.88;;;13.70;99.90;;;;;;4908821;29;20060;-55
2021/10/14 18:55:57;;;;;;;8.15;6.82;;;13.80;99.90;;;;;;4882359;29;20063;-55
2021/10/14 18:58:28;;;;;;;;;;;13.80;99.90;;;;;;4907424;29;20075;-53
2021/10/14 19:00:54;;;;;;;12.32;7.63;;;13.80;99.90;;;;;;4907055;29;19959;-53
2021/10/14 19:03:33;;;;;;;11.43;8.32;;;13.80;99.90;;;;;;4906787;29;20691;-55
2021/10/14 19:06:05;;;;;;;10.35;8.20;;;13.90;99.90;;;;;;4909940;29;20061;-53
2021/10/14 19:14:05;;;;;;;10.48;7.75;;;13.80;99.90;;;;;;4910352;29;20707;-53
2021/10/14 19:22:51;;;;;;;8.73;7.47;;;13.80;99.90;;;;;;4925889;29;20059;-53
2021/10/14 20:20:15;;;;;;;13.40;8.93;;;13.60;99.90;;;;;;4950527;29;19941;-53
2021/10/14 20:22:41;;;;;;;16.63;9.60;;;13.50;99.90;;;;;;4940133;29;20062;-53
2021/10/14 20:25:13;;;;;;;12.80;9.65;;;13.50;99.90;;;;;;4916925;29;20059;-51
2021/10/14 20:27:40;;;;;;;14.93;8.70;;;13.50;99.90;;;;;;4931206;29;20458;-54
2021/10/14 20:30:10;;;;;;;12.20;9.50;;;13.50;99.90;;;;;;4914661;29;20051;-54
2021/10/14 20:32:37;;;;;;;13.02;9.68;;;13.50;99.90;;;;;;4911860;29;20838;-52
2021/10/14 20:35:23;;;;;;;13.77;10.68;;;13.50;99.90;;;;;;4911641;29;20425;-50
2021/10/14 20:37:49;;;;;;;14.73;11.02;;;13.50;99.90;;;;;;4930550;29;20063;-49
2021/10/14 20:40:17;;;;;;;12.93;11.32;;;13.60;99.90;;;;;;4929546;29;20520;-54
2021/10/14 20:42:43;;;;;;;20.77;14.52;;;13.50;99.90;;;;;;4921197;29;20583;-53
2021/10/14 20:45:12;;;;;;;15.93;12.88;;;13.50;99.90;;;;;;4940827;29;20142;-53
2021/10/14 20:47:39;;;;;;;14.48;12.10;;;13.60;99.90;;;;;;4952194;29;20531;-50
2021/10/14 20:50:08;;;;;;;18.40;14.57;;;13.60;99.90;;;;;;4952320;29;20082;-52
2021/10/14 20:52:43;;;;;;;21.17;15.23;;;13.60;99.90;;;;;;4933447;29;20059;-52
2021/10/14 20:55:15;;;;;;;18.35;14.82;;;13.60;99.90;;;;;;4933477;29;20044;-54
2021/10/14 21:03:32;;;;;;;16.85;15.05;;;13.60;99.90;;;;;;4951813;29;20094;-53
2021/10/14 21:05:58;;;;;;;18.98;15.93;;;13.60;99.90;;;;;;4952045;29;20103;-51
2021/10/14 21:08:24;;;;;;;17.95;16.05;;;13.60;99.90;;;;;;4962712;28;20185;-53
2021/10/14 21:10:53;;;;;;;19.45;17.38;;;13.70;99.90;;;;;;4946013;29;20055;-53
2021/10/14 21:13:21;;;;;;;20.02;16.17;;;13.70;99.90;;;;;;4952086;29;20404;-50
2021/10/14 21:15:50;;;;;;;20.70;16.08;;;13.70;99.90;;;;;;4951883;29;20084;-52
2021/10/14 21:18:16;;;;;;;19.90;16.25;;;13.70;99.90;;;;;;4952070;29;20508;-50
2021/10/14 21:20:42;;;;;;;23.80;16.67;;;13.70;99.90;;;;;;4952060;29;20522;-51
2021/10/14 21:23:09;;;;;;;18.90;15.20;;;13.70;99.90;;;;;;4952552;29;20452;-53
2021/10/14 21:25:41;;;;;;;18.15;14.90;;;13.70;99.90;;;;;;4952616;29;20129;-52
2021/10/14 21:36:16;;;;;;;18.05;16.10;;;13.70;99.90;;;;;;4919801;29;20060;-53
2021/10/14 21:38:45;;;;;;;18.52;15.20;;;13.80;99.90;;;;;;4926557;29;20063;-50
2021/10/14 21:41:14;;;;;;;16.27;14.52;;;13.80;99.90;;;;;;4911566;29;20103;-53
2021/10/14 21:43:43;;;;;;;21.65;15.35;;;13.70;99.90;;;;;;4923642;29;20535;-53
2021/10/14 21:46:09;;;;;;;18.55;15.65;;;13.70;99.90;;;;;;4919351;29;20052;-50
2021/10/14 21:48:35;;;;;;;16.15;14.13;;;13.70;99.90;;;;;;4910924;29;20115;-51
2021/10/14 21:51:01;;;;;;;18.15;15.55;;;13.70;99.90;;;;;;4921115;29;20147;-49
2021/10/14 21:53:27;;;;;;;18.77;15.60;;;13.70;99.90;;;;;;4914092;29;20608;-50
2021/10/14 21:55:55;;;;;;;17.38;14.52;;;13.70;99.90;;;;;;4920785;29;20551;-50
2021/10/14 21:58:22;;;;;;;16.27;14.57;;;13.70;99.90;;;;;;4913994;29;20063;-51
2021/10/14 22:01:10;;;;;;;18.48;14.30;;;13.70;99.90;;;;;;4922378;29;20112;-50
2021/10/14 22:03:36;;;;;;;18.45;15.30;;;13.70;99.90;;;;;;4910225;29;20048;-48
2021/10/14 22:06:05;;;;;;;16.42;13.75;;;13.70;99.90;;;;;;4924771;29;20110;-51
2021/10/14 22:08:32;;;;;;;16.80;12.77;;;13.70;99.90;;;;;;4923488;29;20044;-52
2021/10/14 22:11:01;;;;;;;16.10;13.65;;;13.70;99.90;;;;;;4922199;29;20080;-51
2021/10/14 22:13:27;;;;;;;16.67;13.32;;;13.60;99.90;;;;;;4940366;29;20051;-49
2021/10/14 22:15:53;;;;;;;19.23;13.02;;;13.60;99.90;;;;;;4951765;29;20047;-50
2021/10/14 22:18:20;;;;;;;16.48;12.88;;;13.60;99.90;;;;;;4951044;29;20712;-51
2021/10/14 22:20:47;;;;;;;18.63;14.32;;;13.60;99.90;;;;;;4951701;29;20791;-50
2021/10/14 22:23:15;;;;;;;17.30;12.15;;;13.50;99.90;;;;;;4951253;29;20059;-52
2021/10/14 22:25:41;;;;;;;15.50;12.82;;;13.50;99.90;;;;;;4949882;29;20081;-49
2021/10/14 22:28:07;;;;;;;13.80;11.65;;;13.60;99.90;;;;;;4950907;29;20512;-52
2021/10/14 22:30:34;;;;;;;17.30;13.07;;;13.50;99.90;;;;;;4951317;29;20077;-51
2021/10/14 22:33:00;;;;;;;18.55;13.48;;;13.50;99.90;;;;;;4951650;29;20591;-49
2021/10/14 22:35:29;;;;;;;18.95;13.85;;;13.50;99.90;;;;;;4949972;28;20047;-49
2021/10/14 22:37:55;;;;;;;15.25;13.65;;;13.50;99.90;;;;;;4950958;29;20065;-51
2021/10/14 22:40:21;;;;;;;16.00;14.23;;;13.40;99.90;;;;;;4950145;28;20051;-53
2021/10/14 22:42:51;;;;;;;16.20;13.48;;;13.40;99.90;;;;;;4948946;29;20711;-49
2021/10/14 22:45:18;;;;;;;15.07;12.68;;;13.40;99.90;;;;;;4950580;29;20059;-49
2021/10/14 22:47:44;;;;;;;16.75;13.35;;;13.40;99.90;;;;;;4950975;29;20063;-51
2021/10/14 22:50:12;;;;;;;17.48;14.13;;;13.40;99.90;;;;;;4950773;29;20069;-51
2021/10/14 22:52:39;;;;;;;16.83;14.85;;;13.40;99.90;;;;;;4950215;29;20504;-50
2021/10/14 22:55:08;;;;;;;20.60;16.33;;;13.40;99.90;;;;;;4950766;29;20066;-50
2021/10/14 22:57:39;;;;;;;22.38;16.83;;;13.40;99.90;;;;;;4950178;29;20062;-50
2021/10/14 23:00:06;;;;;;;23.02;19.23;;;13.30;99.90;;;;;;4950781;29;20059;-52
2021/10/14 23:02:32;;;;;;;27.80;19.58;;;13.30;99.90;;;;;;4950217;29;20514;-49
2021/10/14 23:05:01;;;;;;;23.20;20.70;;;13.40;99.90;;;;;;4950570;29;20066;-50
2021/10/14 23:07:27;;;;;;;24.77;20.25;;;13.30;99.90;;;;;;4951153;29;20117;-49
2021/10/14 23:09:55;;;;;;;24.20;21.67;;;13.40;99.90;;;;;;4950071;29;20505;-49
2021/10/14 23:12:23;;;;;;;25.25;22.65;;;13.40;99.90;;;;;;4950543;29;20109;-51
2021/10/14 23:14:49;;;;;;;27.63;22.73;;;13.40;99.90;;;;;;4950502;29;20059;-50
2021/10/14 23:20:00;;;;;;;26.30;23.48;;;13.40;99.90;;;;;;4949954;29;20055;-49
2021/10/14 23:22:29;;;;;;;28.15;23.90;;;13.40;99.90;;;;;;4950611;29;20417;-50
2021/10/14 23:24:55;;;;;;;26.88;23.98;;;13.40;99.90;;;;;;4951426;29;20188;-52